Main page
METAR-TAF:

METAR-TAF

Airports :

Chengdu Shuangliu International Airport

Chengdu, China

latitude: 30-40N, longitude: 104-01E, elevation: 508 m

Current weather observation

The report was made 24 minutes ago, at 20:00 UTC
Calm wind
Temperature 24°C
Humidity 94%
Pressure 1005 hPa
Visibility: 8000 m

METAR: ZUUU 182000Z 00000MPS 8000 NSC 24/23 Q1005 NOSIG

Time: 04:24 (20:24 UTC)

Forecast

The report was made 6 hours and 19 minutes ago, at 14:05 UTC
Forecast valid from 18 at 18 UTC to 19 at 18 UTC
Wind 6 kt from the South/Southwest
Visibility: 5000 m
Scattered clouds at a height of 5000 ft
mist

TAF: ZUUU 181405Z 1818/1918 20003MPS 5000 BR SCT050 TX34/1907Z TN24/1822Z

Weather observations and forecasts of more than 4000 airports (METAR and TAF reports).

The available stations are represented by yellow and red dots on the map.

Hover mouse over dot to see the name of the station.

Then click to see weather observations and forecasts.

To change the map : click on the green buttons with a black cross to zoom in, on the green button with a dash to zoom out, or on the green arrows for adjacent maps.


METAR-TAF: